Time;durP1;ratioP1;P1;durP2;ratioP2;P2;SDS_P1;SDS_P2;PMS_P1;PMS_P2;Temp;Humidity;BMP_temperature;BMP_pressure;BME280_temperature;BME280_humidity;BME280_pressure;Samples;Min_cycle;Max_cycle;Signal;HPM_P1;HPM_P2
2022/07/28 00:01:20;;;;;;;12.77;10.10;;;;;;;27.31;52.86;99059.84;5089030;28;20424;-57
2022/07/28 00:03:47;;;;;;;9.50;8.70;;;;;;;27.31;52.76;99056.34;5089876;28;20195;-57
2022/07/28 00:06:14;;;;;;;10.68;9.63;;;;;;;27.29;53.20;99060.88;5089842;28;20219;-57
2022/07/28 00:08:42;;;;;;;9.45;8.55;;;;;;;27.22;53.25;99055.09;5091984;28;20674;-57
2022/07/28 00:11:09;;;;;;;13.63;9.52;;;;;;;27.23;53.60;99070.00;5093576;28;20191;-58
2022/07/28 00:13:36;;;;;;;10.05;9.13;;;;;;;27.24;53.51;99068.22;5093515;28;20698;-58
2022/07/28 00:16:04;;;;;;;11.20;8.95;;;;;;;27.18;53.78;99064.16;5093741;28;20191;-57
2022/07/28 00:18:30;;;;;;;17.30;10.27;;;;;;;27.18;53.10;99074.69;5093742;28;20194;-57
2022/07/28 00:20:57;;;;;;;9.85;8.88;;;;;;;27.14;53.30;99064.44;5093627;28;20244;-57
2022/07/28 00:23:24;;;;;;;9.88;9.00;;;;;;;27.12;53.32;99069.78;5093362;28;20191;-57
2022/07/28 00:25:53;;;;;;;11.10;8.82;;;;;;;27.10;53.51;99081.34;5093279;28;20680;-57
2022/07/28 00:28:19;;;;;;;8.88;7.93;;;;;;;27.10;53.01;99090.13;5093324;28;20688;-57
2022/07/28 00:30:46;;;;;;;12.43;9.55;;;;;;;27.11;52.77;99083.06;5093307;28;20194;-58
2022/07/28 00:33:13;;;;;;;9.75;8.77;;;;;;;27.13;52.64;99092.59;5093159;28;20216;-58
2022/07/28 00:35:40;;;;;;;10.73;9.35;;;;;;;27.13;52.83;99089.09;5093250;28;20206;-58
2022/07/28 00:38:07;;;;;;;9.70;8.75;;;;;;;27.14;52.74;99096.91;5093123;28;20774;-58
2022/07/28 00:43:28;;;;;;;9.70;8.70;;;;;;;27.12;52.69;99082.09;5068008;28;20665;-57
2022/07/28 00:45:55;;;;;;;10.32;8.48;;;;;;;27.10;52.56;99098.03;5092742;28;20231;-58
2022/07/28 00:48:21;;;;;;;10.17;9.00;;;;;;;27.10;52.37;99092.75;5092777;28;20661;-58
2022/07/28 00:50:48;;;;;;;11.05;9.70;;;;;;;27.10;52.49;99095.41;5092869;28;20573;-57
2022/07/28 00:53:15;;;;;;;9.25;8.27;;;;;;;27.06;52.04;99096.50;5092933;28;20199;-57
2022/07/28 00:55:42;;;;;;;9.75;8.52;;;;;;;26.97;52.21;99091.78;5092917;28;20566;-57
2022/07/28 00:58:09;;;;;;;9.30;8.40;;;;;;;26.93;52.06;99092.88;5092527;28;20218;-57
2022/07/28 01:00:37;;;;;;;10.60;8.00;;;;;;;26.86;52.12;99100.25;5092891;28;20203;-57
2022/07/28 01:03:06;;;;;;;9.10;8.25;;;;;;;26.80;51.96;99099.78;5092167;28;20489;-57
2022/07/28 01:05:41;;;;;;;9.90;8.87;;;;;;;26.80;51.72;99095.34;5092568;28;20202;-57
2022/07/28 01:08:13;;;;;;;11.00;7.70;;;;;;;26.75;51.43;99094.72;5092676;28;20229;-58
2022/07/28 01:10:47;;;;;;;10.20;8.43;;;;;;;26.69;52.08;99102.13;5092565;28;20638;-57
2022/07/28 01:13:22;;;;;;;8.25;7.55;;;;;;;26.61;51.90;99092.00;5092532;28;20191;-58
2022/07/28 01:15:56;;;;;;;8.75;7.85;;;;;;;26.62;52.27;99111.28;5092662;28;20194;-57
2022/07/28 01:18:29;;;;;;;8.57;7.72;;;;;;;26.46;52.90;99095.47;5092530;28;20182;-58
2022/07/28 01:21:05;;;;;;;7.80;7.10;;;;;;;26.39;53.15;99104.66;5091359;28;20198;-57
2022/07/28 01:24:07;;;;;;;8.10;7.30;;;;;;;26.21;54.11;99105.63;5092728;28;20202;-58
2022/07/28 01:26:42;;;;;;;9.98;8.23;;;;;;;26.00;55.29;99112.88;5091565;28;20808;-57
2022/07/28 01:29:22;;;;;;;11.60;8.43;;;;;;;25.96;55.39;99119.22;5092238;28;20673;-57
2022/07/28 01:31:56;;;;;;;10.07;7.73;;;;;;;25.78;56.47;99114.91;5091998;28;20195;-57
2022/07/28 01:34:29;;;;;;;12.03;8.37;;;;;;;25.74;56.33;99122.09;5092146;28;20740;-57
2022/07/28 01:37:03;;;;;;;8.93;8.03;;;;;;;25.54;56.12;99122.28;5091877;28;20191;-58
2022/07/28 01:39:33;;;;;;;8.57;7.67;;;;;;;25.55;55.68;99112.59;5092077;28;20577;-58
2022/07/28 01:42:03;;;;;;;12.00;8.10;;;;;;;25.52;55.15;99120.66;5091822;28;20611;-57
2022/07/28 01:44:32;;;;;;;9.13;8.07;;;;;;;25.50;55.36;99119.88;5091930;28;20198;-57
2022/07/28 01:47:03;;;;;;;12.33;8.33;;;;;;;25.53;54.86;99119.72;5091851;28;20215;-58
2022/07/28 01:49:32;;;;;;;9.50;8.57;;;;;;;25.56;54.98;99117.78;5091564;28;20369;-57
2022/07/28 01:52:00;;;;;;;9.53;8.17;;;;;;;25.48;54.69;99117.31;5091727;28;20191;-57
2022/07/28 01:54:30;;;;;;;9.33;8.37;;;;;;;25.57;54.71;99118.66;5091660;28;20187;-58
2022/07/28 01:56:59;;;;;;;9.90;8.60;;;;;;;25.63;54.77;99124.44;5091391;28;20222;-58
2022/07/28 01:59:28;;;;;;;8.87;8.07;;;;;;;25.62;54.68;99116.63;5091398;28;20204;-56
2022/07/28 02:01:57;;;;;;;11.00;8.63;;;;;;;25.66;54.69;99120.78;5091364;28;20692;-58
2022/07/28 02:04:26;;;;;;;9.30;8.40;;;;;;;25.69;54.70;99123.25;5091287;28;20191;-58
2022/07/28 02:06:55;;;;;;;9.03;8.23;;;;;;;25.69;54.99;99120.63;5091305;28;20245;-56
2022/07/28 02:09:24;;;;;;;11.90;9.10;;;;;;;25.70;55.35;99125.84;5091769;28;20210;-57
2022/07/28 02:11:53;;;;;;;11.23;9.33;;;;;;;25.72;55.05;99120.47;5091195;28;20194;-57
2022/07/28 02:14:23;;;;;;;10.57;9.57;;;;;;;25.70;55.03;99124.97;5091077;28;20191;-57
2022/07/28 02:16:54;;;;;;;10.67;9.67;;;;;;;25.67;54.66;99123.34;5091155;28;20194;-58
2022/07/28 02:19:22;;;;;;;12.47;10.50;;;;;;;25.62;55.33;99122.75;5091193;28;20197;-58
2022/07/28 02:21:52;;;;;;;10.63;9.63;;;;;;;25.56;55.44;99122.19;5091029;28;20191;-58
2022/07/28 02:24:21;;;;;;;10.53;9.63;;;;;;;25.53;55.76;99120.56;5091040;28;20665;-58
2022/07/28 02:26:53;;;;;;;11.23;9.43;;;;;;;25.51;55.66;99126.84;5090825;28;20694;-57
2022/07/28 02:29:23;;;;;;;11.75;10.60;;;;;;;25.59;55.41;99117.63;5090343;28;20526;-57
2022/07/28 02:31:56;;;;;;;12.27;10.50;;;;;;;25.69;55.75;99118.00;5090566;28;20256;-57
2022/07/28 02:34:25;;;;;;;11.63;10.53;;;;;;;25.77;54.82;99115.81;5090905;28;20194;-58
2022/07/28 02:36:58;;;;;;;10.87;9.80;;;;;;;25.66;54.97;99116.38;5090890;28;20191;-58
2022/07/28 02:39:28;;;;;;;11.30;10.13;;;;;;;25.65;55.56;99119.09;5090653;28;20195;-58
2022/07/28 02:42:01;;;;;;;12.73;10.90;;;;;;;25.60;55.83;99123.75;5091127;28;21061;-58
2022/07/28 02:44:33;;;;;;;11.47;10.37;;;;;;;25.60;55.59;99116.69;5090944;28;20273;-58
2022/07/28 02:47:01;;;;;;;12.60;10.30;;;;;;;25.56;55.20;99114.31;5090740;28;20237;-58
2022/07/28 02:49:31;;;;;;;12.00;10.23;;;;;;;25.62;55.22;99122.75;5090587;28;20194;-57
2022/07/28 02:52:01;;;;;;;13.27;11.17;;;;;;;25.67;54.78;99125.13;5090655;28;20195;-57
2022/07/28 02:54:31;;;;;;;12.27;10.40;;;;;;;25.73;55.04;99127.47;5090479;28;20210;-57
2022/07/28 02:57:00;;;;;;;12.37;10.90;;;;;;;25.72;54.71;99125.75;5090641;28;20219;-59
2022/07/28 02:59:28;;;;;;;13.70;11.40;;;;;;;25.75;55.36;99129.06;5090580;28;20191;-57
2022/07/28 03:01:56;;;;;;;12.80;10.27;;;;;;;25.83;55.25;99136.56;5090291;28;20662;-58
2022/07/28 03:07:07;;;;;;;12.10;10.88;;;;;;;25.92;54.19;99125.59;5089903;28;20459;-57
2022/07/28 03:09:39;;;;;;;11.77;10.57;;;;;;;25.98;53.72;99127.91;5090558;28;20725;-58
2022/07/28 03:12:07;;;;;;;11.63;10.37;;;;;;;26.07;52.88;99124.75;5090317;28;20212;-58
2022/07/28 03:14:34;;;;;;;11.67;10.53;;;;;;;26.07;53.02;99123.94;5090350;28;20191;-58
2022/07/28 03:17:00;;;;;;;11.50;10.40;;;;;;;26.11;53.01;99114.94;5090285;28;20191;-58
2022/07/28 03:19:27;;;;;;;11.20;10.07;;;;;;;26.20;52.60;99122.38;5090145;28;20198;-58
2022/07/28 03:21:54;;;;;;;11.48;10.07;;;;;;;26.24;52.66;99124.75;5090104;28;20198;-58
2022/07/28 03:24:25;;;;;;;12.02;10.82;;;;;;;26.30;52.69;99121.81;5090008;28;20677;-58
2022/07/28 03:26:59;;;;;;;11.37;10.33;;;;;;;26.35;52.35;99114.50;5089926;28;20665;-59
2022/07/28 03:29:28;;;;;;;11.53;10.33;;;;;;;26.40;51.72;99116.06;5089940;28;20279;-58
2022/07/28 03:31:58;;;;;;;12.70;11.40;;;;;;;26.48;51.76;99117.31;5089252;28;20497;-58
2022/07/28 03:34:25;;;;;;;12.00;10.85;;;;;;;26.57;51.47;99123.88;5090087;28;20245;-58
2022/07/28 03:37:02;;;;;;;11.35;10.27;;;;;;;26.59;50.91;99128.13;5090249;28;20194;-58
2022/07/28 03:39:35;;;;;;;11.57;10.43;;;;;;;26.64;50.71;99130.53;5089939;28;20201;-58
2022/07/28 03:42:04;;;;;;;12.70;11.50;;;;;;;26.68;51.26;99132.03;5089763;28;20194;-58
2022/07/28 03:44:31;;;;;;;12.00;10.60;;;;;;;26.71;50.94;99131.88;5093645;28;20199;-58
2022/07/28 03:46:58;;;;;;;11.60;10.18;;;;;;;26.70;50.23;99135.47;5093843;28;20661;-58
2022/07/28 03:49:25;;;;;;;11.40;10.40;;;;;;;26.63;50.39;99134.09;5093920;28;20187;-58
2022/07/28 03:51:52;;;;;;;12.23;10.70;;;;;;;26.69;50.49;99133.75;5094093;28;20191;-58
2022/07/28 03:54:19;;;;;;;14.13;12.07;;;;;;;26.77;50.68;99129.75;5093695;28;20213;-58
2022/07/28 03:56:47;;;;;;;11.85;10.65;;;;;;;26.86;50.15;99139.81;5093617;28;20637;-58
2022/07/28 03:59:14;;;;;;;12.50;10.60;;;;;;;26.97;49.88;99143.66;5093787;28;20538;-58
2022/07/28 04:01:41;;;;;;;12.05;10.82;;;;;;;27.02;49.77;99131.91;5093828;28;20688;-58
2022/07/28 04:04:08;;;;;;;12.65;10.05;;;;;;;27.14;49.81;99136.47;5093764;28;20195;-58
2022/07/28 04:06:35;;;;;;;11.93;10.57;;;;;;;27.18;49.91;99148.56;5093684;28;20665;-58
2022/07/28 04:09:01;;;;;;;13.27;10.77;;;;;;;27.25;49.83;99142.00;5093376;28;20305;-58
2022/07/28 04:11:28;;;;;;;12.38;11.13;;;;;;;27.23;49.89;99135.97;5093625;28;20202;-58
2022/07/28 04:13:57;;;;;;;12.52;11.32;;;;;;;27.34;50.93;99159.94;5093603;28;20191;-59
2022/07/28 04:16:24;;;;;;;13.25;11.20;;;;;;;27.44;50.25;99163.78;5093256;28;20733;-58
2022/07/28 04:18:50;;;;;;;13.52;11.73;;;;;;;27.49;50.58;99172.31;5093478;28;20195;-58
2022/07/28 04:21:17;;;;;;;12.82;11.18;;;;;;;27.34;50.57;99175.78;5093136;28;20194;-58
2022/07/28 04:23:44;;;;;;;12.45;11.15;;;;;;;27.35;50.71;99181.91;5093297;28;20268;-58
2022/07/28 04:26:11;;;;;;;14.07;11.57;;;;;;;27.30;50.70;99178.69;5093193;28;20197;-58
2022/07/28 04:28:38;;;;;;;13.00;11.80;;;;;;;27.41;50.40;99179.78;5093152;28;20214;-57
2022/07/28 04:31:06;;;;;;;13.98;12.20;;;;;;;27.46;50.63;99190.94;5093049;28;20191;-57
2022/07/28 04:33:33;;;;;;;15.73;12.23;;;;;;;27.47;49.96;99192.63;5092928;28;20436;-57
2022/07/28 04:36:01;;;;;;;13.93;11.82;;;;;;;27.43;49.78;99185.84;5093131;28;20194;-57
2022/07/28 04:38:28;;;;;;;15.85;12.45;;;;;;;27.46;49.92;99193.59;5093290;28;20310;-57
2022/07/28 04:40:55;;;;;;;14.38;12.68;;;;;;;27.46;50.44;99200.66;5093487;28;20202;-57
2022/07/28 04:43:21;;;;;;;19.00;13.80;;;;;;;27.45;51.17;99201.59;5093149;28;20635;-57
2022/07/28 04:45:49;;;;;;;26.65;13.98;;;;;;;27.46;51.64;99206.78;5093336;28;20195;-58
2022/07/28 04:48:18;;;;;;;15.00;13.23;;;;;;;27.12;52.21;99214.84;5093023;28;20349;-57
2022/07/28 04:50:45;;;;;;;15.27;13.00;;;;;;;27.19;51.79;99215.38;5092753;28;20198;-57
2022/07/28 04:53:12;;;;;;;14.50;12.98;;;;;;;27.16;52.25;99197.06;5092578;28;20202;-58
2022/07/28 04:55:39;;;;;;;15.20;13.70;;;;;;;27.30;52.00;99223.53;5092487;28;20248;-58
2022/07/28 04:58:06;;;;;;;16.40;12.70;;;;;;;27.30;51.83;99220.91;5092268;28;20230;-57
2022/07/28 05:00:33;;;;;;;14.90;13.40;;;;;;;27.32;51.53;99222.50;5092192;28;20202;-58
2022/07/28 05:03:01;;;;;;;17.30;14.57;;;;;;;27.33;51.79;99221.56;5092249;28;20195;-57
2022/07/28 05:05:31;;;;;;;20.67;14.93;;;;;;;27.37;51.77;99216.97;5092227;28;20191;-58
2022/07/28 05:07:58;;;;;;;17.75;14.90;;;;;;;27.42;51.98;99221.09;5092246;28;20218;-59
2022/07/28 05:10:25;;;;;;;18.98;14.40;;;;;;;27.40;51.83;99212.41;5092087;28;20661;-57
2022/07/28 05:12:53;;;;;;;17.17;14.25;;;;;;;27.56;51.96;99216.81;5091682;28;20431;-57
2022/07/28 05:15:20;;;;;;;16.55;13.93;;;;;;;27.61;52.61;99220.88;5092064;28;20194;-58
2022/07/28 05:17:47;;;;;;;17.35;13.88;;;;;;;27.74;51.57;99221.91;5091895;28;20187;-58
2022/07/28 05:20:14;;;;;;;20.27;13.63;;;;;;;27.78;51.42;99214.63;5092019;28;20565;-57
2022/07/28 05:22:44;;;;;;;15.50;12.90;;;;;;;27.88;52.00;99219.28;5092016;28;20217;-58
2022/07/28 05:25:18;;;;;;;15.35;12.57;;;;;;;27.98;51.83;99214.31;5091821;28;20198;-58
2022/07/28 05:27:46;;;;;;;14.70;12.88;;;;;;;28.04;51.60;99221.91;5091732;28;20218;-58
2022/07/28 05:30:13;;;;;;;16.88;11.85;;;;;;;28.08;52.12;99210.22;5091659;28;20198;-58
2022/07/28 05:32:40;;;;;;;16.35;13.32;;;;;;;28.21;51.34;99215.63;5091816;28;20195;-57
2022/07/28 05:35:07;;;;;;;12.95;11.73;;;;;;;28.19;51.55;99213.06;5091792;28;20194;-58
2022/07/28 05:37:34;;;;;;;11.68;10.60;;;;;;;28.36;51.25;99219.97;5091406;28;20199;-57
2022/07/28 05:40:04;;;;;;;13.55;12.10;;;;;;;28.44;50.68;99215.94;5091108;28;20191;-58
2022/07/28 05:42:35;;;;;;;13.05;11.70;;;;;;;28.54;50.63;99224.16;5091483;28;20195;-58
2022/07/28 05:45:04;;;;;;;12.25;10.48;;;;;;;28.59;50.16;99225.59;5086351;28;20187;-58
2022/07/28 05:47:31;;;;;;;16.67;11.40;;;;;;;28.61;50.52;99226.31;5082780;28;20200;-58
2022/07/28 05:50:01;;;;;;;14.70;10.70;;;;;;;28.55;50.48;99226.69;5091026;28;20214;-58
2022/07/28 05:52:28;;;;;;;18.20;11.20;;;;;;;28.59;50.70;99224.72;5081402;28;20514;-67
2022/07/28 05:54:56;;;;;;;12.10;10.75;;;;;;;28.78;49.63;99222.69;5085457;28;20668;-67
2022/07/28 05:57:24;;;;;;;10.63;9.73;;;;;;;28.86;49.74;99222.19;5091350;28;20673;-69
2022/07/28 05:59:51;;;;;;;11.07;9.93;;;;;;;28.93;49.90;99205.81;5091518;28;20596;-67
2022/07/28 06:02:18;;;;;;;13.18;10.85;;;;;;;29.05;49.51;99214.78;5087295;28;20266;-67
2022/07/28 06:04:45;;;;;;;12.13;10.40;;;;;;;29.08;49.37;99210.16;5091301;28;20244;-67
2022/07/28 06:07:12;;;;;;;12.30;10.93;;;;;;;29.12;49.44;99208.16;5090517;28;20210;-68
2022/07/28 06:09:39;;;;;;;11.23;10.23;;;;;;;29.21;48.69;99211.09;5090998;28;20291;-67
2022/07/28 06:12:06;;;;;;;11.63;10.43;;;;;;;29.24;48.92;99208.25;5090366;28;20440;-68
2022/07/28 06:14:34;;;;;;;11.20;10.20;;;;;;;29.32;48.13;99206.91;5085678;28;20688;-66
2022/07/28 06:17:01;;;;;;;9.98;9.18;;;;;;;29.28;48.20;99211.56;5090042;28;20195;-66
2022/07/28 06:19:28;;;;;;;11.70;10.48;;;;;;;29.34;48.93;99213.78;5082868;28;20253;-67
2022/07/28 06:21:55;;;;;;;11.07;9.93;;;;;;;29.40;48.29;99209.91;5090037;28;20183;-67
2022/07/28 06:24:22;;;;;;;11.07;9.98;;;;;;;29.43;48.28;99205.25;5089611;28;20649;-66
2022/07/28 06:26:48;;;;;;;13.57;10.40;;;;;;;29.47;47.43;99216.50;5089345;28;20202;-67
2022/07/28 06:29:15;;;;;;;12.02;10.48;;;;;;;29.54;47.19;99207.19;5089744;28;20195;-66
2022/07/28 06:31:44;;;;;;;12.25;10.15;;;;;;;29.56;47.42;99206.16;5089468;28;20666;-67
2022/07/28 06:34:10;;;;;;;11.60;10.52;;;;;;;29.58;47.80;99206.06;5089115;28;20435;-67
2022/07/28 06:36:37;;;;;;;11.25;10.15;;;;;;;29.47;47.66;99206.78;5087287;28;20195;-66
2022/07/28 06:39:04;;;;;;;11.43;10.27;;;;;;;29.44;48.21;99211.41;5089391;28;20547;-66
2022/07/28 06:41:31;;;;;;;13.02;10.90;;;;;;;29.43;47.76;99225.59;5086312;28;20210;-67
2022/07/28 06:43:58;;;;;;;12.57;11.23;;;;;;;29.48;47.95;99205.81;5087987;28;20203;-67
2022/07/28 06:46:25;;;;;;;12.20;11.02;;;;;;;29.38;48.35;99207.38;5084933;28;20280;-66
2022/07/28 06:48:53;;;;;;;17.58;11.63;;;;;;;29.59;48.29;99207.75;5088041;28;20215;-68
2022/07/28 06:51:22;;;;;;;12.82;10.13;;;;;;;29.67;47.63;99214.22;5084268;28;20538;-66
2022/07/28 06:53:49;;;;;;;14.05;10.48;;;;;;;29.83;46.93;99203.53;5089488;28;20195;-66
2022/07/28 06:56:16;;;;;;;11.48;10.30;;;;;;;29.91;46.61;99209.16;5086309;28;20198;-67
2022/07/28 06:58:43;;;;;;;11.90;10.70;;;;;;;29.91;47.44;99193.25;5075936;28;20231;-67
2022/07/28 07:01:11;;;;;;;12.63;11.50;;;;;;;29.99;47.57;99198.88;5068658;28;20202;-65
2022/07/28 07:03:38;;;;;;;13.25;10.07;;;;;;;30.13;46.54;99204.09;5069184;28;20214;-66
2022/07/28 07:06:06;;;;;;;12.18;11.00;;;;;;;30.22;46.56;99195.50;5069423;28;20198;-67
2022/07/28 07:08:33;;;;;;;12.30;11.23;;;;;;;30.25;45.86;99197.94;5069876;28;20219;-65
2022/07/28 07:11:00;;;;;;;13.60;12.13;;;;;;;29.99;46.26;99198.03;5069313;28;20441;-65
2022/07/28 07:13:27;;;;;;;13.02;11.30;;;;;;;29.91;46.71;99205.66;5069079;28;20195;-66
2022/07/28 07:15:54;;;;;;;12.35;11.15;;;;;;;30.04;47.13;99210.00;5069505;28;20191;-65
2022/07/28 07:18:21;;;;;;;12.27;11.05;;;;;;;30.05;46.45;99208.22;5068160;28;20188;-65
2022/07/28 07:20:48;;;;;;;11.73;10.73;;;;;;;29.91;45.66;99171.19;5074426;28;20205;-66
2022/07/28 07:23:17;;;;;;;12.32;11.13;;;;;;;30.09;46.11;99192.00;5074565;28;20256;-66
2022/07/28 07:25:44;;;;;;;12.10;11.00;;;;;;;30.25;45.75;99197.09;5077595;28;20199;-66
2022/07/28 07:28:10;;;;;;;12.98;11.70;;;;;;;30.43;45.34;99192.34;5085152;28;20680;-67
2022/07/28 07:30:37;;;;;;;13.77;11.50;;;;;;;30.55;45.51;99191.47;5086392;28;20195;-67
2022/07/28 07:33:04;;;;;;;19.05;11.88;;;;;;;30.72;45.04;99189.34;5087441;28;20282;-66
2022/07/28 07:35:32;;;;;;;13.68;11.98;;;;;;;30.81;45.19;99190.50;5088291;28;20205;-65
2022/07/28 07:37:59;;;;;;;12.65;11.52;;;;;;;30.82;44.07;99194.84;5088271;28;20195;-59
2022/07/28 07:40:27;;;;;;;13.50;12.10;;;;;;;30.90;44.10;99193.31;5087411;28;20915;-59
2022/07/28 07:42:53;;;;;;;12.77;11.55;;;;;;;31.02;44.18;99196.94;5089016;28;20199;-59
2022/07/28 07:45:20;;;;;;;11.75;10.55;;;;;;;31.07;43.15;99196.63;5083385;28;20188;-59
2022/07/28 07:47:47;;;;;;;12.27;11.13;;;;;;;30.98;43.11;99200.78;5069250;28;20636;-59
2022/07/28 07:50:14;;;;;;;11.63;10.63;;;;;;;30.96;43.02;99198.22;5073597;28;20222;-59
2022/07/28 07:52:41;;;;;;;12.68;11.57;;;;;;;30.94;43.42;99207.25;5069045;28;20191;-60
2022/07/28 07:55:09;;;;;;;14.70;12.82;;;;;;;30.76;43.65;99206.75;5069433;28;20199;-66
2022/07/28 07:57:37;;;;;;;13.48;11.13;;;;;;;30.59;44.37;99201.78;5084635;28;20231;-65
2022/07/28 08:00:05;;;;;;;12.27;10.98;;;;;;;30.55;44.27;99189.69;5089240;28;20221;-66
2022/07/28 08:02:32;;;;;;;17.15;11.60;;;;;;;30.80;43.63;99202.06;5083217;28;20252;-66
2022/07/28 08:04:59;;;;;;;15.73;11.10;;;;;;;31.06;43.61;99197.56;5089072;28;20282;-66
2022/07/28 08:07:26;;;;;;;13.52;11.40;;;;;;;31.29;44.06;99200.25;5087673;28;20256;-66
2022/07/28 08:09:53;;;;;;;12.63;11.43;;;;;;;31.47;43.21;99192.78;5089639;28;20222;-64
2022/07/28 08:12:20;;;;;;;14.25;12.13;;;;;;;31.51;42.43;99192.44;5089461;28;20681;-67
2022/07/28 08:14:48;;;;;;;17.05;12.45;;;;;;;31.68;42.89;99196.47;5088787;28;20424;-66
2022/07/28 08:17:15;;;;;;;12.18;11.10;;;;;;;31.83;41.79;99198.00;5088465;28;20195;-66
2022/07/28 08:19:41;;;;;;;14.77;13.30;;;;;;;31.95;41.38;99193.53;5089115;28;20191;-60
2022/07/28 08:22:08;;;;;;;12.75;11.43;;;;;;;32.06;41.12;99199.78;5088405;28;20787;-60
2022/07/28 08:24:35;;;;;;;12.65;11.27;;;;;;;32.09;40.57;99199.53;5087874;28;20199;-60
2022/07/28 08:27:02;;;;;;;15.32;11.70;;;;;;;32.18;40.38;99197.16;5087845;28;20199;-60
2022/07/28 08:29:29;;;;;;;12.45;11.20;;;;;;;31.93;41.30;99200.78;5089212;28;20238;-59
2022/07/28 08:31:58;;;;;;;17.80;12.48;;;;;;;31.94;41.33;99198.03;5090819;28;20199;-61
2022/07/28 08:34:25;;;;;;;13.00;11.75;;;;;;;32.03;41.35;99188.53;5090812;28;20418;-60
2022/07/28 08:36:53;;;;;;;15.15;12.15;;;;;;;32.14;41.04;99196.53;5091671;28;20194;-59
2022/07/28 08:39:20;;;;;;;13.82;11.48;;;;;;;32.31;40.52;99190.75;5092851;28;20281;-60
2022/07/28 08:41:51;;;;;;;14.43;11.40;;;;;;;32.49;40.30;99201.78;5092269;28;20195;-65
2022/07/28 08:44:21;;;;;;;13.68;12.30;;;;;;;32.62;39.79;99198.06;5092407;28;20293;-60
2022/07/28 08:46:49;;;;;;;11.65;10.50;;;;;;;32.69;38.37;99193.94;5092650;28;20202;-59
2022/07/28 08:49:17;;;;;;;14.27;12.00;;;;;;;32.83;38.73;99198.19;5092349;28;20305;-59
2022/07/28 08:51:47;;;;;;;12.98;11.27;;;;;;;32.93;39.44;99198.31;5092245;28;20202;-60
2022/07/28 08:54:18;;;;;;;15.23;10.55;;;;;;;32.81;38.02;99197.47;5092251;28;20187;-62
2022/07/28 08:56:47;;;;;;;12.30;11.20;;;;;;;32.59;38.06;99205.44;5091899;28;20256;-61
2022/07/28 08:59:14;;;;;;;11.40;10.40;;;;;;;32.43;38.35;99195.13;5092584;28;20195;-60
2022/07/28 09:01:41;;;;;;;11.82;10.73;;;;;;;32.37;39.11;99197.41;5092330;28;20199;-60
2022/07/28 09:04:08;;;;;;;12.43;11.20;;;;;;;32.46;39.01;99199.38;5092266;28;20191;-60
2022/07/28 09:06:40;;;;;;;11.27;10.27;;;;;;;32.57;39.34;99192.28;5091963;28;20191;-60
2022/07/28 09:09:08;;;;;;;12.63;11.35;;;;;;;32.83;39.52;99189.34;5091907;28;20385;-60
2022/07/28 09:11:35;;;;;;;13.20;11.88;;;;;;;32.98;38.51;99196.09;5091853;28;20240;-60
2022/07/28 09:14:02;;;;;;;11.57;10.57;;;;;;;33.06;38.51;99196.38;5091857;28;20670;-60
2022/07/28 09:16:29;;;;;;;12.32;11.07;;;;;;;33.29;37.84;99189.19;5091886;28;20677;-60
2022/07/28 09:18:56;;;;;;;11.88;10.65;;;;;;;33.34;36.79;99195.81;5090984;28;20440;-60
2022/07/28 09:21:23;;;;;;;14.88;13.45;;;;;;;33.50;36.66;99187.41;5091590;28;20187;-59
2022/07/28 09:23:52;;;;;;;13.50;12.13;;;;;;;33.43;36.97;99189.72;5091803;28;20191;-59
2022/07/28 09:26:19;;;;;;;12.52;11.30;;;;;;;33.57;37.42;99192.13;5091775;28;20218;-61
2022/07/28 09:28:51;;;;;;;19.13;13.60;;;;;;;33.86;37.17;99199.53;5091520;28;20187;-60
2022/07/28 09:31:18;;;;;;;15.25;12.85;;;;;;;34.06;36.58;99186.22;5091472;28;20191;-60
2022/07/28 09:34:00;;;;;;;15.55;14.05;;;;;;;34.06;35.80;99191.53;5091245;28;20582;-60
2022/07/28 09:36:28;;;;;;;16.45;14.43;;;;;;;34.06;35.90;99198.69;5089621;28;20253;-60
2022/07/28 09:38:57;;;;;;;14.32;13.10;;;;;;;34.01;36.21;99193.72;5091216;28;20191;-60
2022/07/28 09:41:24;;;;;;;16.00;14.50;;;;;;;33.92;36.30;99191.88;5090299;28;20273;-59
2022/07/28 09:43:52;;;;;;;15.63;14.23;;;;;;;33.97;36.53;99191.47;5090217;28;20443;-59
2022/07/28 09:46:20;;;;;;;17.15;15.45;;;;;;;34.13;35.99;99186.53;5091211;28;20199;-59
2022/07/28 09:48:57;;;;;;;15.07;13.77;;;;;;;34.09;35.18;99190.47;5091153;28;20195;-60
2022/07/28 09:51:26;;;;;;;13.93;12.63;;;;;;;33.96;34.94;99189.75;5091488;28;20225;-60
2022/07/28 09:53:54;;;;;;;13.75;12.55;;;;;;;34.01;35.57;99184.91;5090769;28;20190;-60
2022/07/28 09:56:24;;;;;;;14.80;13.43;;;;;;;34.17;35.63;99183.47;5091059;28;20197;-65
2022/07/28 09:58:55;;;;;;;13.77;12.45;;;;;;;34.27;34.96;99176.41;5090543;28;20309;-66
2022/07/28 10:01:22;;;;;;;13.70;12.10;;;;;;;34.34;34.91;99179.34;5090923;28;20195;-66
2022/07/28 10:03:52;;;;;;;13.35;12.15;;;;;;;34.44;34.68;99182.09;5090588;28;20220;-66
2022/07/28 10:06:26;;;;;;;11.60;10.50;;;;;;;34.52;33.93;99172.44;5091086;28;20244;-66
2022/07/28 10:08:56;;;;;;;11.57;10.63;;;;;;;34.41;33.41;99185.88;5090813;28;20212;-66
2022/07/28 10:11:26;;;;;;;13.85;11.35;;;;;;;34.35;33.75;99181.06;5088738;28;20210;-65
2022/07/28 10:13:55;;;;;;;11.98;10.95;;;;;;;34.44;35.09;99176.75;5081822;28;20225;-60
2022/07/28 10:16:23;;;;;;;12.73;11.20;;;;;;;34.57;35.48;99166.72;5073434;28;20796;-60
2022/07/28 10:18:50;;;;;;;14.43;12.93;;;;;;;34.71;33.33;99171.69;5080651;28;20963;-60
2022/07/28 10:21:19;;;;;;;13.63;12.25;;;;;;;34.68;34.03;99172.81;5070645;28;20218;-60
2022/07/28 10:23:50;;;;;;;13.88;12.40;;;;;;;34.75;33.52;99162.44;5082159;28;20247;-59
2022/07/28 10:26:20;;;;;;;19.13;11.75;;;;;;;34.72;33.09;99160.88;5090412;28;20645;-59
2022/07/28 10:28:50;;;;;;;11.18;10.07;;;;;;;34.69;33.85;99168.31;5090419;28;20205;-59
2022/07/28 10:31:27;;;;;;;11.35;10.40;;;;;;;34.67;34.05;99155.09;5089533;28;20211;-59
2022/07/28 10:33:56;;;;;;;12.10;10.90;;;;;;;34.59;33.77;99116.72;5090292;28;20248;-59
2022/07/28 10:36:24;;;;;;;11.43;10.45;;;;;;;34.68;34.00;99155.94;5089084;28;20416;-60
2022/07/28 10:39:02;;;;;;;11.55;10.48;;;;;;;34.75;34.26;99138.44;5090077;28;20439;-59
2022/07/28 10:41:38;;;;;;;10.52;9.60;;;;;;;34.85;33.91;99137.47;5087034;28;20241;-59
2022/07/28 10:44:08;;;;;;;12.65;11.45;;;;;;;34.74;33.82;99139.41;5075274;28;20198;-60
2022/07/28 10:46:37;;;;;;;11.90;9.23;;;;;;;34.63;32.79;99132.34;5083222;28;20277;-59
2022/07/28 10:49:04;;;;;;;10.40;9.48;;;;;;;34.77;32.14;99131.97;5084762;28;20229;-60
2022/07/28 10:51:32;;;;;;;11.27;9.10;;;;;;;34.61;32.48;99128.94;5083628;28;20195;-60
2022/07/28 10:54:07;;;;;;;9.77;8.70;;;;;;;34.73;32.25;99127.88;5087678;28;20211;-67
2022/07/28 10:56:59;;;;;;;11.48;10.35;;;;;;;34.93;31.87;99142.97;5087931;28;20251;-67
2022/07/28 10:59:43;;;;;;;11.25;10.25;;;;;;;35.03;32.18;99126.94;5058986;28;20186;-67
2022/07/28 11:02:51;;;;;;;12.77;11.50;;;;;;;35.27;32.17;99127.41;5077413;28;20241;-66
2022/07/28 11:05:29;;;;;;;10.38;9.38;;;;;;;35.46;32.72;99131.94;5084294;28;20194;-60
2022/07/28 11:07:59;;;;;;;11.80;9.00;;;;;;;35.60;30.97;99120.00;5088112;28;20198;-61
2022/07/28 11:10:27;;;;;;;11.05;9.48;;;;;;;35.63;30.97;99138.44;5084411;28;20274;-60
2022/07/28 11:12:56;;;;;;;11.00;9.95;;;;;;;35.60;29.48;99128.03;5086814;28;20189;-60
2022/07/28 11:15:33;;;;;;;10.00;9.10;;;;;;;35.65;30.27;99126.63;5086592;28;20497;-60
2022/07/28 11:18:01;;;;;;;11.23;9.10;;;;;;;35.41;30.36;99128.81;5085244;28;20203;-60
2022/07/28 11:21:06;;;;;;;11.75;9.27;;;;;;;35.51;30.00;99124.34;5082586;28;20190;-60
2022/07/28 11:23:47;;;;;;;9.75;8.82;;;;;;;35.70;29.86;99126.19;5069942;28;20223;-60
2022/07/28 11:26:33;;;;;;;17.50;10.23;;;;;;;35.76;29.50;99122.94;5069342;28;20230;-60
2022/07/28 11:29:16;;;;;;;9.95;9.00;;;;;;;35.76;30.07;99104.22;5069080;28;20291;-60
2022/07/28 11:32:04;;;;;;;11.60;8.82;;;;;;;35.81;29.46;99109.97;5068632;28;20225;-59
2022/07/28 11:35:07;;;;;;;12.90;9.20;;;;;;;35.72;29.64;99110.81;5069111;28;20195;-59